KLAX
-
D:
A:
[email protected]    29.96
KLAX 241653Z 00000KT 10SM FEW018 21/13 A2996
KSFO
-
D:
A:
[email protected]    30.00
KSFO 241656Z 07004KT 10SM SCT200 17/11 A3000
KOAK
-
D:
A:
[email protected]    30.01
KOAK 241653Z 20004KT 10SM BKN300 18/12 A3001
KLAS
-
D:
A:
[email protected]    30.01
KLAS 241656Z 05013KT 10SM FEW250 24/M06 A3001
KSAN
-
D:
A:
[email protected]    29.97
KSAN 241651Z 27007KT 10SM FEW019 FEW250 21/13 A2997
KSMF
-
D:
A:
[email protected]    29.98
KSMF 241653Z 00000KT 10SM FEW250 23/09 A2998
KBUR
-
D:
A:
[email protected]    29.96
KBUR 241653Z 00000KT 10SM CLR 20/12 A2996
KFAT
-
D:
A:
[email protected]    29.98
KFAT 241653Z 00000KT 10SM FEW250 24/04 A2998
KSNA
-
D:
A:
[email protected]    29.95
KSNA 241653Z 00000KT 10SM FEW021 21/13 A2995
KSJC
-
D:
A:
02[email protected]    30.00
KSJC 241653Z 02003KT 10SM FEW017 FEW110 SCT170 20/07 A3000
KLGB
-
D:
A:
[email protected]    29.96
KLGB 241653Z 22005KT 10SM CLR 20/13 A2996
KMRY
-
D:
A:
[email protected]    30.02
KMRY 241654Z 30004KT 8SM FEW004 16/12 A3002
KONT
-
D:
A:
[email protected]    29.96
KONT 241653Z VRB03KT 9SM FEW250 21/12 A2996
KRNO
-
D:
A:
[email protected]    30.17
KRNO 241655Z 00000KT 10SM SCT250 17/M06 A3017
KPSP
-
D:
A:
[email protected]    29.89
KPSP 241653Z 00000KT 10SM CLR 32/04 A2989
KSBA
-
D:
A:
[email protected]    29.97
KSBA 241653Z 17006KT 6SM HZ CLR 17/13 A2997

Traffic Management Unit

Active Area Information

PIREPs